createdAt,value
2023-03-20T14:29:11.585Z,15.10
2023-03-20T14:32:14.967Z,14.95
2023-03-20T14:35:21.338Z,14.48
2023-03-20T14:38:22.757Z,15.73
2023-03-20T14:41:26.872Z,14.88
2023-03-20T14:44:38.528Z,15.60
2023-03-20T14:47:43.917Z,14.73
2023-03-20T14:50:39.769Z,15.55
2023-03-20T14:53:27.237Z,14.18
2023-03-20T14:56:15.435Z,14.48
2023-03-20T14:59:10.742Z,16.10
2023-03-20T15:01:59.444Z,16.27
2023-03-20T15:04:44.975Z,16.10
2023-03-20T15:07:35.751Z,15.57
2023-03-20T15:10:21.352Z,15.50
2023-03-20T15:13:07.992Z,16.45
2023-03-20T15:15:58.678Z,17.17
2023-03-20T15:18:47.265Z,16.70
2023-03-20T15:21:34.376Z,16.52
2023-03-20T15:24:25.251Z,15.48
2023-03-20T15:27:13.009Z,17.38
2023-03-20T15:30:01.026Z,16.60
2023-03-20T15:32:49.028Z,16.33
2023-03-20T15:35:34.321Z,16.23
2023-03-20T15:38:20.194Z,16.58
2023-03-20T15:41:07.786Z,16.17
2023-03-20T15:43:53.442Z,16.85
2023-03-20T15:46:38.616Z,16.42
2023-03-20T15:49:24.872Z,16.77
2023-03-20T15:52:38.069Z,16.77
2023-03-20T15:55:24.720Z,15.82
2023-03-20T15:58:14.109Z,15.40
2023-03-20T16:01:01.053Z,16.30
2023-03-20T16:03:46.662Z,15.32
2023-03-20T16:06:32.155Z,16.02
2023-03-20T16:09:17.614Z,15.55
2023-03-20T16:12:03.297Z,16.05
2023-03-20T16:14:51.273Z,14.93
2023-03-20T16:17:36.801Z,16.65
2023-03-20T16:20:23.820Z,15.80
2023-03-20T16:23:09.931Z,15.38
2023-03-20T16:25:59.238Z,15.05
2023-03-20T16:28:50.649Z,15.40
2023-03-20T16:31:37.352Z,16.15
2023-03-20T16:34:27.163Z,14.48
2023-03-20T16:37:28.845Z,16.73
2023-03-20T16:40:42.203Z,16.38
2023-03-20T16:43:31.549Z,15.10
2023-03-20T16:46:22.796Z,15.40
2023-03-20T16:49:32.208Z,16.08
2023-03-20T16:52:23.934Z,16.02
2023-03-20T16:55:26.823Z,15.00
2023-03-20T16:58:29.861Z,15.57
2023-03-20T17:01:21.651Z,15.68
2023-03-20T17:04:23.361Z,15.68
2023-03-20T17:07:23.758Z,14.75
2023-03-20T17:10:18.027Z,16.38
2023-03-20T17:13:03.529Z,17.00
2023-03-20T17:15:49.186Z,15.07
2023-03-20T17:18:36.125Z,15.60
2023-03-20T17:21:21.635Z,16.48
2023-03-20T17:24:07.069Z,17.45
2023-03-20T17:26:58.136Z,17.20
2023-03-20T17:29:44.303Z,17.02
2023-03-20T17:32:29.879Z,16.90
2023-03-20T17:35:15.557Z,16.80
2023-03-20T17:38:01.316Z,16.13
2023-03-20T17:40:47.487Z,16.27
2023-03-20T17:43:33.200Z,15.90
2023-03-20T17:46:28.393Z,18.52
2023-03-20T17:49:15.628Z,17.40
2023-03-20T17:52:00.999Z,17.63
2023-03-20T17:54:47.001Z,16.63
2023-03-20T17:57:37.787Z,18.02
2023-03-20T18:00:24.482Z,16.75
2023-03-20T18:03:10.583Z,17.05
2023-03-20T18:05:56.489Z,17.27
2023-03-20T18:08:41.565Z,16.70
2023-03-20T18:11:27.961Z,16.48
2023-03-20T18:14:17.798Z,17.02
2023-03-20T18:17:03.847Z,16.67
2023-03-20T18:19:48.943Z,15.82
2023-03-20T18:22:34.544Z,17.00
2023-03-20T18:25:19.687Z,16.50
2023-03-20T18:28:07.743Z,17.17
2023-03-20T18:30:53.523Z,17.90
2023-03-20T18:33:39.052Z,17.33
2023-03-20T18:36:25.257Z,17.05
2023-03-20T18:39:16.781Z,16.77
2023-03-20T18:42:02.225Z,16.60
2023-03-20T18:44:47.799Z,18.48
2023-03-20T18:47:33.251Z,15.82
2023-03-20T18:50:28.512Z,17.10
2023-03-20T18:53:13.609Z,16.67
2023-03-20T18:56:00.599Z,16.98
2023-03-20T18:58:46.838Z,15.38
2023-03-20T19:01:33.188Z,16.00
2023-03-20T19:04:19.320Z,16.85
2023-03-20T19:07:04.537Z,16.67
2023-03-20T19:09:49.583Z,17.45
2023-03-20T19:12:35.343Z,16.60
2023-03-20T19:15:21.500Z,16.98
2023-03-20T19:18:15.445Z,17.77
2023-03-20T19:21:01.126Z,16.80
2023-03-20T19:23:46.464Z,17.30
2023-03-20T19:26:33.399Z,16.98
2023-03-20T19:29:18.835Z,16.38
2023-03-20T19:32:04.324Z,16.45
2023-03-20T19:35:38.949Z,15.73
2023-03-20T19:37:55.811Z,15.63
2023-03-20T19:40:47.192Z,16.88
2023-03-20T19:43:32.630Z,15.45
2023-03-20T19:46:32.179Z,15.90
2023-03-20T19:49:30.457Z,16.88
2023-03-20T19:52:31.903Z,17.05
2023-03-20T19:55:17.634Z,16.17
2023-03-20T19:58:04.690Z,16.55
2023-03-20T20:00:59.246Z,17.25
2023-03-20T20:03:58.923Z,17.02
2023-03-20T20:06:47.258Z,16.00
2023-03-20T20:09:32.930Z,16.92
2023-03-20T20:12:18.293Z,17.30
2023-03-20T20:15:03.803Z,16.70
2023-03-20T20:17:49.135Z,17.17
2023-03-20T20:20:36.007Z,17.10
2023-03-20T20:23:27.504Z,17.42
2023-03-20T20:26:12.982Z,16.58
2023-03-20T20:28:59.526Z,15.48
2023-03-20T20:31:44.866Z,15.45
2023-03-20T20:40:44.534Z,12.25
2023-03-20T20:43:59.583Z,11.85
2023-03-20T20:46:35.461Z,11.27
2023-03-20T20:49:21.150Z,11.85
2023-03-20T20:52:06.801Z,12.10
2023-03-20T20:54:51.931Z,12.00
2023-03-20T20:57:37.549Z,11.60
2023-03-20T21:00:37.095Z,12.07
2023-03-20T21:03:28.881Z,11.23
2023-03-20T21:06:14.303Z,12.57
2023-03-20T21:08:59.514Z,12.18
2023-03-20T21:11:44.924Z,13.07
2023-03-20T21:14:30.752Z,12.63
2023-03-20T21:17:16.695Z,12.95
2023-03-20T21:20:02.362Z,14.05
2023-03-20T21:22:47.667Z,14.32
2023-03-20T21:25:40.762Z,12.70
2023-03-20T21:28:27.539Z,12.75
2023-03-20T21:31:26.204Z,13.25
2023-03-20T21:34:14.077Z,13.02
2023-03-20T21:37:00.125Z,12.93
2023-03-20T21:39:51.253Z,12.52
2023-03-20T21:42:37.003Z,12.57
2023-03-20T21:49:10.043Z,13.50
2023-03-20T22:01:29.780Z,11.90
2023-03-20T22:17:19.887Z,10.38
2023-03-20T22:20:09.165Z,10.70
2023-03-20T22:29:24.291Z,10.43
2023-03-20T22:35:41.869Z,10.48
2023-03-20T22:47:17.264Z,11.50
2023-03-20T22:50:03.114Z,11.52
2023-03-20T22:52:49.848Z,11.32
2023-03-20T22:55:35.646Z,11.45
2023-03-20T22:58:21.146Z,11.57
2023-03-20T23:01:08.822Z,11.32
2023-03-20T23:03:53.893Z,12.10
2023-03-20T23:06:40.999Z,11.32
2023-03-20T23:09:26.082Z,11.38
2023-03-20T23:12:11.704Z,11.43
2023-03-20T23:14:57.539Z,10.85
2023-03-20T23:17:42.832Z,10.85
2023-03-20T23:20:28.469Z,10.82
2023-03-20T23:23:13.757Z,10.23
2023-03-20T23:26:20.842Z,11.43
2023-03-20T23:29:06.648Z,10.90
2023-03-20T23:31:52.022Z,10.98
2023-03-20T23:34:37.238Z,11.02
2023-03-20T23:37:22.482Z,10.38
2023-03-20T23:40:10.527Z,10.35
2023-03-20T23:42:55.929Z,10.40
2023-03-20T23:45:41.421Z,10.05
2023-03-20T23:48:26.945Z,9.65
2023-03-20T23:51:12.160Z,9.70
2023-03-20T23:53:57.520Z,9.70
2023-03-20T23:56:43.024Z,10.93
2023-03-20T23:59:29.835Z,10.20
